EWG7PQ EDDH-LEPA
Flight info
| Callsign | EWG7PQ |
|---|---|
| Flight time | 2h 18m |
| Altitude | 36000 |
| Route | HABFU1C HABFU Y348 DOMEG DCT LIRSU DCT LIMGO/N0437F370 N852 SUTAL DCT GTQ DCT POGOL DCT LASAT DCT MOROK DCT GILIR DCT GEVEA DCT INCUS DCT BALSI DCT RETNO DCT TUPOX DCT MTG DCT DIVKO DCT VATIR N852 PIVUS DCT BODEQ N852 VERSO DCT LUNIK |
| Aircraft | A320/M-SDE3FGHIRWY/LB1 |
Departure
| Time | 2026-04-21 13:57 |
|---|---|
| Airport | Hamburg Helmut Schmidt Airport (EDDH) |
Arrival
| Time | 2026-04-21 16:15 |
|---|---|
| Airport | Palma de Mallorca Airport (LEPA) |
| Time | Latitude | Longitude | Altitude | Speed | Heading |
|---|---|---|---|---|---|
| 2026-04-21 13:20 | 53.62842 | 10.00209 | 49 ft | 0 kts | 62° |
| 2026-04-21 13:24 | 53.62842 | 10.00208 | 49 ft | 0 kts | 63° |
| 2026-04-21 13:25 | 53.62841 | 10.00208 | 49 ft | 0 kts | 63° |
| 2026-04-21 13:35 | 53.62841 | 10.00207 | 48 ft | 0 kts | 63° |
| 2026-04-21 13:46 | 53.62841 | 10.00206 | 48 ft | 0 kts | 63° |
| 2026-04-21 13:48 | 53.62839 | 10.00202 | 47 ft | 3 kts | 63° |
| 2026-04-21 13:49 | 53.62827 | 10.00162 | 46 ft | 4 kts | 62° |
| 2026-04-21 13:49 | 53.62814 | 10.00125 | 48 ft | 4 kts | 36° |
| 2026-04-21 13:49 | 53.62793 | 10.00118 | 45 ft | 4 kts | 339° |
| 2026-04-21 13:49 | 53.62779 | 10.00128 | 46 ft | 0 kts | 333° |
| 2026-04-21 13:52 | 53.62779 | 10.00129 | 46 ft | 0 kts | 333° |
| 2026-04-21 13:54 | 53.62782 | 10.00126 | 46 ft | 1 kts | 333° |
| 2026-04-21 13:54 | 53.62798 | 10.00112 | 47 ft | 4 kts | 334° |
| 2026-04-21 13:55 | 53.62829 | 10.00087 | 48 ft | 6 kts | 333° |
| 2026-04-21 13:55 | 53.62856 | 10.00020 | 48 ft | 8 kts | 278° |
| 2026-04-21 13:55 | 53.62844 | 9.99955 | 46 ft | 3 kts | 240° |
| 2026-04-21 13:55 | 53.62832 | 9.99920 | 47 ft | 6 kts | 241° |
| 2026-04-21 13:56 | 53.62808 | 9.99832 | 45 ft | 9 kts | 249° |
| 2026-04-21 13:56 | 53.62842 | 9.99768 | 45 ft | 8 kts | 336° |
| 2026-04-21 13:56 | 53.62958 | 9.99669 | 45 ft | 45 kts | 333° |
| 2026-04-21 13:56 | 53.63442 | 9.99248 | 47 ft | 108 kts | 333° |
| 2026-04-21 13:57 | 53.64262 | 9.98539 | 59 ft | 154 kts | 334° |
| 2026-04-21 13:57 | 53.65226 | 9.97692 | 554 ft | 158 kts | 336° |
| 2026-04-21 13:57 | 53.66236 | 9.96817 | 1091 ft | 168 kts | 339° |
| 2026-04-21 13:57 | 53.67302 | 9.95903 | 1656 ft | 176 kts | 339° |
| 2026-04-21 13:58 | 53.68468 | 9.94919 | 1977 ft | 200 kts | 339° |
| 2026-04-21 13:58 | 53.69790 | 9.93810 | 2376 ft | 220 kts | 338° |
| 2026-04-21 13:58 | 53.71052 | 9.92418 | 3260 ft | 221 kts | 314° |
| 2026-04-21 13:58 | 53.71659 | 9.89961 | 3815 ft | 243 kts | 273° |
| 2026-04-21 13:59 | 53.71450 | 9.87026 | 4208 ft | 268 kts | 255° |
| 2026-04-21 13:59 | 53.70843 | 9.83957 | 4879 ft | 280 kts | 248° |
| 2026-04-21 13:59 | 53.70111 | 9.80888 | 5755 ft | 284 kts | 247° |
| 2026-04-21 13:59 | 53.69362 | 9.77788 | 6651 ft | 288 kts | 248° |
| 2026-04-21 14:00 | 53.68636 | 9.74624 | 7494 ft | 291 kts | 249° |
| 2026-04-21 14:00 | 53.67937 | 9.71399 | 8325 ft | 295 kts | 250° |
| 2026-04-21 14:00 | 53.67258 | 9.68104 | 9125 ft | 299 kts | 251° |
| 2026-04-21 14:00 | 53.66587 | 9.64747 | 9912 ft | 304 kts | 251° |
| 2026-04-21 14:01 | 53.65786 | 9.61418 | 10630 ft | 309 kts | 240° |
| 2026-04-21 14:01 | 53.64567 | 9.58379 | 11072 ft | 323 kts | 227° |
| 2026-04-21 14:01 | 53.62844 | 9.55789 | 11281 ft | 341 kts | 211° |
| 2026-04-21 14:01 | 53.60751 | 9.53834 | 11807 ft | 347 kts | 205° |
| 2026-04-21 14:02 | 53.59330 | 9.52567 | 12235 ft | 351 kts | 205° |
| 2026-04-21 14:02 | 53.56433 | 9.49933 | 13150 ft | 356 kts | 206° |
| 2026-04-21 14:02 | 53.54248 | 9.47921 | 13823 ft | 360 kts | 206° |
| 2026-04-21 14:03 | 53.49809 | 9.43826 | 15055 ft | 367 kts | 206° |
| 2026-04-21 14:03 | 53.47585 | 9.41783 | 15638 ft | 370 kts | 205° |
| 2026-04-21 14:03 | 53.45313 | 9.39703 | 16233 ft | 374 kts | 205° |
| 2026-04-21 14:03 | 53.43021 | 9.37614 | 16815 ft | 377 kts | 205° |
| 2026-04-21 14:04 | 53.40706 | 9.35512 | 17408 ft | 380 kts | 205° |
| 2026-04-21 14:04 | 53.38368 | 9.33398 | 17996 ft | 383 kts | 205° |
| 2026-04-21 14:04 | 53.36013 | 9.31269 | 18597 ft | 387 kts | 205° |
| 2026-04-21 14:04 | 53.33622 | 9.29177 | 19115 ft | 389 kts | 200° |
| 2026-04-21 14:05 | 53.31080 | 9.27657 | 19643 ft | 387 kts | 190° |
| 2026-04-21 14:05 | 53.28440 | 9.26789 | 20199 ft | 388 kts | 185° |
| 2026-04-21 14:05 | 53.25770 | 9.26006 | 20759 ft | 391 kts | 185° |
| 2026-04-21 14:05 | 53.23085 | 9.25217 | 21298 ft | 394 kts | 185° |
| 2026-04-21 14:06 | 53.20376 | 9.24416 | 21836 ft | 396 kts | 185° |
| 2026-04-21 14:06 | 53.17648 | 9.23606 | 22361 ft | 399 kts | 185° |
| 2026-04-21 14:06 | 53.14906 | 9.22788 | 22892 ft | 402 kts | 185° |
| 2026-04-21 14:06 | 53.12144 | 9.21963 | 23411 ft | 405 kts | 185° |
| 2026-04-21 14:07 | 53.09360 | 9.21135 | 23917 ft | 408 kts | 185° |
| 2026-04-21 14:07 | 53.06559 | 9.20304 | 24333 ft | 410 kts | 185° |
| 2026-04-21 14:07 | 53.03737 | 9.19469 | 24757 ft | 412 kts | 185° |
| 2026-04-21 14:07 | 53.00902 | 9.18633 | 25174 ft | 415 kts | 185° |
| 2026-04-21 14:08 | 52.98048 | 9.17792 | 25581 ft | 417 kts | 185° |
| 2026-04-21 14:08 | 52.95214 | 9.16616 | 25977 ft | 425 kts | 194° |
| 2026-04-21 14:08 | 52.92475 | 9.14651 | 26374 ft | 433 kts | 203° |
| 2026-04-21 14:08 | 52.89848 | 9.12316 | 26760 ft | 435 kts | 203° |
| 2026-04-21 14:09 | 52.87138 | 9.09920 | 27155 ft | 437 kts | 203° |
| 2026-04-21 14:09 | 52.84484 | 9.07593 | 27533 ft | 439 kts | 202° |
| 2026-04-21 14:09 | 52.81775 | 9.05231 | 27889 ft | 441 kts | 202° |
| 2026-04-21 14:09 | 52.79056 | 9.02864 | 28249 ft | 443 kts | 202° |
| 2026-04-21 14:10 | 52.76318 | 9.00487 | 28619 ft | 445 kts | 202° |
| 2026-04-21 14:10 | 52.73568 | 8.98097 | 28984 ft | 447 kts | 202° |
| 2026-04-21 14:10 | 52.70807 | 8.95699 | 29325 ft | 450 kts | 202° |
| 2026-04-21 14:10 | 52.68034 | 8.93294 | 29674 ft | 452 kts | 202° |
| 2026-04-21 14:11 | 52.66151 | 8.91662 | 29936 ft | 453 kts | 202° |
| 2026-04-21 14:11 | 52.63350 | 8.89235 | 30266 ft | 456 kts | 202° |
| 2026-04-21 14:11 | 52.60572 | 8.86824 | 30582 ft | 457 kts | 202° |
| 2026-04-21 14:11 | 52.57762 | 8.84387 | 30985 ft | 456 kts | 203° |
| 2026-04-21 14:12 | 52.54953 | 8.81956 | 31387 ft | 456 kts | 203° |
| 2026-04-21 14:12 | 52.52151 | 8.79537 | 31786 ft | 455 kts | 204° |
| 2026-04-21 14:12 | 52.49352 | 8.77123 | 32191 ft | 454 kts | 204° |
| 2026-04-21 14:12 | 52.46546 | 8.74710 | 32596 ft | 454 kts | 204° |
| 2026-04-21 14:13 | 52.43746 | 8.72303 | 33003 ft | 453 kts | 205° |
| 2026-04-21 14:13 | 52.40950 | 8.69903 | 33407 ft | 453 kts | 205° |
| 2026-04-21 14:13 | 52.38152 | 8.67511 | 33804 ft | 453 kts | 205° |
| 2026-04-21 14:13 | 52.35355 | 8.65128 | 34204 ft | 453 kts | 205° |
| 2026-04-21 14:14 | 52.32593 | 8.62776 | 34533 ft | 452 kts | 206° |
| 2026-04-21 14:14 | 52.29813 | 8.60357 | 34836 ft | 453 kts | 209° |
| 2026-04-21 14:14 | 52.27211 | 8.57433 | 35120 ft | 454 kts | 218° |
| 2026-04-21 14:14 | 52.24901 | 8.53905 | 35396 ft | 455 kts | 227° |
| 2026-04-21 14:15 | 52.22787 | 8.50066 | 35678 ft | 455 kts | 227° |
| 2026-04-21 14:15 | 52.20666 | 8.46241 | 35967 ft | 455 kts | 228° |
| 2026-04-21 14:15 | 52.18538 | 8.42429 | 36233 ft | 455 kts | 227° |
| 2026-04-21 14:16 | 52.14250 | 8.34788 | 36316 ft | 459 kts | 228° |
| 2026-04-21 14:16 | 52.09941 | 8.27119 | 36317 ft | 460 kts | 228° |
| 2026-04-21 14:17 | 52.05624 | 8.19454 | 36314 ft | 459 kts | 228° |
| 2026-04-21 14:17 | 52.01291 | 8.11784 | 36311 ft | 460 kts | 228° |
| 2026-04-21 14:18 | 51.96971 | 8.04144 | 36310 ft | 458 kts | 228° |
| 2026-04-21 14:18 | 51.92651 | 7.96547 | 36313 ft | 458 kts | 228° |
| 2026-04-21 14:19 | 51.88353 | 7.89012 | 36310 ft | 458 kts | 228° |
| 2026-04-21 14:19 | 51.84018 | 7.81432 | 36309 ft | 458 kts | 228° |
| 2026-04-21 14:20 | 51.79685 | 7.73870 | 36293 ft | 458 kts | 228° |
| 2026-04-21 14:20 | 51.75350 | 7.66334 | 36311 ft | 458 kts | 228° |
| 2026-04-21 14:21 | 51.70768 | 7.59205 | 36301 ft | 458 kts | 217° |
| 2026-04-21 14:21 | 51.65179 | 7.54263 | 36293 ft | 459 kts | 206° |
| 2026-04-21 14:22 | 51.59413 | 7.49844 | 36298 ft | 459 kts | 206° |
| 2026-04-21 14:22 | 51.53643 | 7.45409 | 36285 ft | 460 kts | 206° |
| 2026-04-21 14:23 | 51.47866 | 7.40981 | 36287 ft | 460 kts | 206° |
| 2026-04-21 14:23 | 51.42088 | 7.36571 | 36288 ft | 460 kts | 206° |
| 2026-04-21 14:24 | 51.36310 | 7.32185 | 36281 ft | 460 kts | 206° |
| 2026-04-21 14:24 | 51.30567 | 7.27835 | 36275 ft | 459 kts | 206° |
| 2026-04-21 14:25 | 51.24786 | 7.23474 | 36277 ft | 459 kts | 206° |
| 2026-04-21 14:25 | 51.19008 | 7.19113 | 36273 ft | 459 kts | 206° |
| 2026-04-21 14:26 | 51.13235 | 7.14765 | 36270 ft | 459 kts | 206° |
| 2026-04-21 14:26 | 51.07459 | 7.10430 | 36251 ft | 459 kts | 207° |
| 2026-04-21 14:27 | 51.01679 | 7.06114 | 36258 ft | 458 kts | 207° |
| 2026-04-21 14:27 | 50.95913 | 7.01825 | 36263 ft | 458 kts | 207° |
| 2026-04-21 14:28 | 50.90151 | 6.97542 | 36264 ft | 457 kts | 207° |
| 2026-04-21 14:28 | 50.84388 | 6.93269 | 36261 ft | 457 kts | 207° |
| 2026-04-21 14:29 | 50.78633 | 6.89000 | 36262 ft | 457 kts | 207° |
| 2026-04-21 14:29 | 50.72865 | 6.84741 | 36260 ft | 457 kts | 207° |
| 2026-04-21 14:30 | 50.67143 | 6.80531 | 36248 ft | 457 kts | 207° |
| 2026-04-21 14:30 | 50.61381 | 6.76302 | 36232 ft | 456 kts | 207° |
| 2026-04-21 14:31 | 50.55614 | 6.72095 | 36228 ft | 456 kts | 207° |
| 2026-04-21 14:31 | 50.49856 | 6.67899 | 36226 ft | 456 kts | 207° |
| 2026-04-21 14:32 | 50.44087 | 6.63707 | 36218 ft | 456 kts | 207° |
| 2026-04-21 14:32 | 50.38316 | 6.59516 | 36213 ft | 456 kts | 207° |
| 2026-04-21 14:33 | 50.32555 | 6.55338 | 36211 ft | 456 kts | 207° |
| 2026-04-21 14:33 | 50.26792 | 6.51179 | 36210 ft | 456 kts | 207° |
| 2026-04-21 14:34 | 50.21024 | 6.47036 | 36201 ft | 456 kts | 207° |
| 2026-04-21 14:34 | 50.14972 | 6.44148 | 36195 ft | 461 kts | 194° |
| 2026-04-21 14:35 | 50.08680 | 6.42180 | 36196 ft | 461 kts | 194° |
| 2026-04-21 14:35 | 50.02394 | 6.40212 | 36188 ft | 461 kts | 194° |
| 2026-04-21 14:36 | 49.96105 | 6.38230 | 36183 ft | 461 kts | 194° |
| 2026-04-21 14:36 | 49.89812 | 6.36252 | 36174 ft | 461 kts | 194° |
| 2026-04-21 14:37 | 49.83525 | 6.34297 | 36182 ft | 461 kts | 194° |
| 2026-04-21 14:37 | 49.77229 | 6.32352 | 36183 ft | 461 kts | 195° |
| 2026-04-21 14:38 | 49.70934 | 6.30404 | 36190 ft | 461 kts | 195° |
| 2026-04-21 14:38 | 49.64525 | 6.29436 | 36191 ft | 468 kts | 179° |
| 2026-04-21 14:38 | 49.61295 | 6.30162 | 36213 ft | 471 kts | 168° |
| 2026-04-21 14:39 | 49.58168 | 6.31729 | 36212 ft | 473 kts | 158° |
| 2026-04-21 14:39 | 49.52098 | 6.35677 | 36185 ft | 474 kts | 159° |
| 2026-04-21 14:40 | 49.46001 | 6.39596 | 36176 ft | 475 kts | 159° |
| 2026-04-21 14:40 | 49.39935 | 6.43653 | 36178 ft | 476 kts | 158° |
| 2026-04-21 14:41 | 49.33886 | 6.47835 | 36161 ft | 477 kts | 158° |
| 2026-04-21 14:41 | 49.27828 | 6.51994 | 36160 ft | 477 kts | 158° |
| 2026-04-21 14:42 | 49.21747 | 6.56112 | 36170 ft | 478 kts | 158° |
| 2026-04-21 14:42 | 49.15658 | 6.60205 | 36391 ft | 478 kts | 158° |
| 2026-04-21 14:42 | 49.12615 | 6.62248 | 36641 ft | 478 kts | 158° |
| 2026-04-21 14:43 | 49.09571 | 6.64294 | 36899 ft | 478 kts | 158° |
| 2026-04-21 14:43 | 49.06527 | 6.66338 | 37102 ft | 478 kts | 158° |
| 2026-04-21 14:43 | 49.03490 | 6.68380 | 37164 ft | 477 kts | 158° |
| 2026-04-21 14:44 | 48.97193 | 6.71182 | 37158 ft | 469 kts | 177° |
| 2026-04-21 14:44 | 48.90754 | 6.71304 | 37161 ft | 465 kts | 186° |
| 2026-04-21 14:45 | 48.84291 | 6.71036 | 37158 ft | 465 kts | 186° |
| 2026-04-21 14:45 | 48.77819 | 6.70789 | 37156 ft | 465 kts | 186° |
| 2026-04-21 14:46 | 48.71343 | 6.70543 | 37155 ft | 466 kts | 186° |
| 2026-04-21 14:46 | 48.64856 | 6.70302 | 37158 ft | 466 kts | 186° |
| 2026-04-21 14:47 | 48.58365 | 6.70060 | 37153 ft | 466 kts | 186° |
| 2026-04-21 14:47 | 48.51871 | 6.69798 | 37148 ft | 466 kts | 186° |
| 2026-04-21 14:48 | 48.45375 | 6.69541 | 37132 ft | 467 kts | 186° |
| 2026-04-21 14:48 | 48.38930 | 6.69296 | 37139 ft | 467 kts | 186° |
| 2026-04-21 14:49 | 48.32392 | 6.69055 | 37136 ft | 467 kts | 186° |
| 2026-04-21 14:49 | 48.25944 | 6.68814 | 37131 ft | 467 kts | 186° |
| 2026-04-21 14:50 | 48.20504 | 6.68601 | 37119 ft | 467 kts | 186° |
| 2026-04-21 14:50 | 48.12957 | 6.68301 | 37124 ft | 466 kts | 186° |
| 2026-04-21 14:51 | 48.06467 | 6.68046 | 37101 ft | 466 kts | 186° |
| 2026-04-21 14:51 | 47.99980 | 6.67799 | 37088 ft | 466 kts | 187° |
| 2026-04-21 14:52 | 47.93494 | 6.67554 | 37091 ft | 466 kts | 187° |
| 2026-04-21 14:52 | 47.87012 | 6.67307 | 37094 ft | 466 kts | 187° |
| 2026-04-21 14:53 | 47.80529 | 6.67072 | 37076 ft | 466 kts | 187° |
| 2026-04-21 14:53 | 47.74048 | 6.66830 | 37084 ft | 466 kts | 187° |
| 2026-04-21 14:54 | 47.67570 | 6.66583 | 37088 ft | 466 kts | 187° |
| 2026-04-21 14:54 | 47.62185 | 6.66383 | 37095 ft | 466 kts | 187° |
| 2026-04-21 14:55 | 47.55703 | 6.66138 | 37081 ft | 466 kts | 187° |
| 2026-04-21 14:55 | 47.48167 | 6.65856 | 37089 ft | 466 kts | 187° |
| 2026-04-21 14:56 | 47.42814 | 6.65137 | 37089 ft | 456 kts | 199° |
| 2026-04-21 14:56 | 47.37060 | 6.61770 | 37070 ft | 438 kts | 218° |
| 2026-04-21 14:57 | 47.32334 | 6.56335 | 37069 ft | 429 kts | 227° |
| 2026-04-21 14:57 | 47.27815 | 6.50658 | 37052 ft | 430 kts | 227° |
| 2026-04-21 14:58 | 47.23253 | 6.44953 | 37049 ft | 430 kts | 227° |
| 2026-04-21 14:58 | 47.18687 | 6.39260 | 37024 ft | 430 kts | 227° |
| 2026-04-21 14:59 | 47.14118 | 6.33581 | 37044 ft | 430 kts | 227° |
| 2026-04-21 14:59 | 47.09520 | 6.27939 | 37046 ft | 433 kts | 222° |
| 2026-04-21 15:00 | 47.04029 | 6.23994 | 37038 ft | 450 kts | 201° |
| 2026-04-21 15:00 | 46.97782 | 6.22758 | 37026 ft | 459 kts | 191° |
| 2026-04-21 15:01 | 46.91423 | 6.21931 | 37037 ft | 458 kts | 191° |
| 2026-04-21 15:01 | 46.85065 | 6.21093 | 37041 ft | 458 kts | 191° |
| 2026-04-21 15:02 | 46.78713 | 6.20244 | 37012 ft | 458 kts | 192° |
| 2026-04-21 15:02 | 46.72375 | 6.19395 | 37039 ft | 456 kts | 192° |
| 2026-04-21 15:03 | 46.66090 | 6.18562 | 37041 ft | 456 kts | 192° |
| 2026-04-21 15:03 | 46.59777 | 6.17735 | 37040 ft | 455 kts | 192° |
| 2026-04-21 15:04 | 46.53473 | 6.16898 | 37038 ft | 455 kts | 192° |
| 2026-04-21 15:04 | 46.47175 | 6.16062 | 37032 ft | 454 kts | 192° |
| 2026-04-21 15:05 | 46.40877 | 6.15240 | 37033 ft | 454 kts | 192° |
| 2026-04-21 15:05 | 46.31428 | 6.14017 | 37014 ft | 454 kts | 192° |
| 2026-04-21 15:06 | 46.25137 | 6.13184 | 37026 ft | 453 kts | 193° |
| 2026-04-21 15:06 | 46.18909 | 6.11992 | 37009 ft | 450 kts | 196° |
| 2026-04-21 15:07 | 46.12744 | 6.10491 | 37012 ft | 449 kts | 197° |
| 2026-04-21 15:07 | 46.06568 | 6.09004 | 36996 ft | 450 kts | 196° |
| 2026-04-21 15:08 | 46.00375 | 6.07625 | 36969 ft | 450 kts | 195° |
| 2026-04-21 15:08 | 45.94176 | 6.06290 | 36980 ft | 450 kts | 195° |
| 2026-04-21 15:09 | 45.87981 | 6.04939 | 36981 ft | 450 kts | 195° |
| 2026-04-21 15:09 | 45.81827 | 6.03579 | 36985 ft | 450 kts | 195° |
| 2026-04-21 15:10 | 45.75639 | 6.02206 | 36971 ft | 450 kts | 195° |
| 2026-04-21 15:10 | 45.69443 | 6.00843 | 36980 ft | 450 kts | 195° |
| 2026-04-21 15:11 | 45.63240 | 5.99482 | 36985 ft | 450 kts | 195° |
| 2026-04-21 15:11 | 45.57048 | 5.98113 | 36971 ft | 450 kts | 195° |
| 2026-04-21 15:12 | 45.50854 | 5.96752 | 36972 ft | 450 kts | 195° |
| 2026-04-21 15:12 | 45.44682 | 5.95301 | 36976 ft | 449 kts | 198° |
| 2026-04-21 15:13 | 45.38596 | 5.93398 | 36949 ft | 446 kts | 200° |
| 2026-04-21 15:13 | 45.32571 | 5.91367 | 36940 ft | 445 kts | 200° |
| 2026-04-21 15:14 | 45.26521 | 5.89419 | 36957 ft | 446 kts | 199° |
| 2026-04-21 15:14 | 45.20452 | 5.87543 | 36949 ft | 447 kts | 199° |
| 2026-04-21 15:15 | 45.14382 | 5.85681 | 36953 ft | 447 kts | 199° |
| 2026-04-21 15:15 | 45.08305 | 5.83806 | 36951 ft | 446 kts | 199° |
| 2026-04-21 15:16 | 45.02243 | 5.81932 | 36935 ft | 446 kts | 199° |
| 2026-04-21 15:16 | 44.96171 | 5.80070 | 36946 ft | 446 kts | 199° |
| 2026-04-21 15:17 | 44.90109 | 5.78217 | 36943 ft | 446 kts | 199° |
| 2026-04-21 15:17 | 44.84052 | 5.76349 | 36917 ft | 445 kts | 199° |
| 2026-04-21 15:18 | 44.78038 | 5.74507 | 36925 ft | 445 kts | 199° |
| 2026-04-21 15:18 | 44.71944 | 5.72641 | 36930 ft | 445 kts | 199° |
| 2026-04-21 15:19 | 44.65927 | 5.70806 | 36908 ft | 445 kts | 199° |
| 2026-04-21 15:19 | 44.59870 | 5.68966 | 36914 ft | 445 kts | 199° |
| 2026-04-21 15:20 | 44.53816 | 5.67133 | 36911 ft | 445 kts | 199° |
| 2026-04-21 15:20 | 44.47770 | 5.65303 | 36899 ft | 444 kts | 199° |
| 2026-04-21 15:21 | 44.41719 | 5.63474 | 36908 ft | 445 kts | 199° |
| 2026-04-21 15:21 | 44.35804 | 5.61155 | 36915 ft | 436 kts | 208° |
| 2026-04-21 15:22 | 44.30206 | 5.58078 | 36908 ft | 435 kts | 209° |
| 2026-04-21 15:22 | 44.24564 | 5.54984 | 36892 ft | 435 kts | 208° |
| 2026-04-21 15:23 | 44.18937 | 5.51916 | 36910 ft | 434 kts | 208° |
| 2026-04-21 15:23 | 44.13315 | 5.48854 | 36901 ft | 433 kts | 208° |
| 2026-04-21 15:24 | 44.07708 | 5.45799 | 36893 ft | 433 kts | 208° |
| 2026-04-21 15:24 | 44.02107 | 5.42757 | 36908 ft | 432 kts | 208° |
| 2026-04-21 15:25 | 43.96511 | 5.39725 | 36905 ft | 431 kts | 208° |
| 2026-04-21 15:25 | 43.90925 | 5.36699 | 36892 ft | 431 kts | 208° |
| 2026-04-21 15:26 | 43.85345 | 5.33678 | 36887 ft | 430 kts | 208° |
| 2026-04-21 15:26 | 43.79796 | 5.30694 | 36896 ft | 430 kts | 207° |
| 2026-04-21 15:27 | 43.74223 | 5.27702 | 36903 ft | 429 kts | 207° |
| 2026-04-21 15:27 | 43.68658 | 5.24706 | 36894 ft | 428 kts | 207° |
| 2026-04-21 15:28 | 43.63108 | 5.21728 | 36907 ft | 428 kts | 207° |
| 2026-04-21 15:28 | 43.57557 | 5.18766 | 36905 ft | 428 kts | 207° |
| 2026-04-21 15:29 | 43.52041 | 5.15825 | 36906 ft | 427 kts | 207° |
| 2026-04-21 15:29 | 43.46460 | 5.12848 | 36908 ft | 427 kts | 207° |
| 2026-04-21 15:30 | 43.40961 | 5.09905 | 36902 ft | 427 kts | 207° |
| 2026-04-21 15:30 | 43.35841 | 5.06071 | 36904 ft | 416 kts | 220° |
| 2026-04-21 15:31 | 43.31071 | 5.01566 | 36885 ft | 415 kts | 220° |
| 2026-04-21 15:31 | 43.26307 | 4.97066 | 36892 ft | 416 kts | 220° |
| 2026-04-21 15:32 | 43.21566 | 4.92601 | 36896 ft | 416 kts | 220° |
| 2026-04-21 15:32 | 43.16788 | 4.88125 | 36904 ft | 415 kts | 220° |
| 2026-04-21 15:33 | 43.12015 | 4.83661 | 36897 ft | 415 kts | 220° |
| 2026-04-21 15:33 | 43.07243 | 4.79209 | 36911 ft | 415 kts | 220° |
| 2026-04-21 15:34 | 43.02249 | 4.75125 | 36910 ft | 419 kts | 214° |
| 2026-04-21 15:34 | 42.97150 | 4.71265 | 36919 ft | 419 kts | 214° |
| 2026-04-21 15:35 | 42.92086 | 4.67431 | 36918 ft | 419 kts | 214° |
| 2026-04-21 15:35 | 42.86984 | 4.63571 | 36920 ft | 419 kts | 214° |
| 2026-04-21 15:36 | 42.81888 | 4.59721 | 36921 ft | 419 kts | 214° |
| 2026-04-21 15:36 | 42.76780 | 4.55876 | 36925 ft | 419 kts | 214° |
| 2026-04-21 15:37 | 42.71676 | 4.52044 | 36929 ft | 419 kts | 214° |
| 2026-04-21 15:37 | 42.66577 | 4.48215 | 36929 ft | 418 kts | 214° |
| 2026-04-21 15:38 | 42.61477 | 4.44398 | 36934 ft | 418 kts | 214° |
| 2026-04-21 15:38 | 42.56413 | 4.40610 | 36932 ft | 418 kts | 214° |
| 2026-04-21 15:39 | 42.51311 | 4.36799 | 36924 ft | 418 kts | 213° |
| 2026-04-21 15:39 | 42.46210 | 4.33002 | 36922 ft | 418 kts | 213° |
| 2026-04-21 15:40 | 42.41099 | 4.29205 | 36923 ft | 418 kts | 213° |
| 2026-04-21 15:40 | 42.36032 | 4.25445 | 36937 ft | 418 kts | 213° |
| 2026-04-21 15:41 | 42.30926 | 4.21660 | 36924 ft | 418 kts | 213° |
| 2026-04-21 15:41 | 42.25815 | 4.17888 | 36918 ft | 418 kts | 213° |
| 2026-04-21 15:42 | 42.20702 | 4.14123 | 36926 ft | 418 kts | 213° |
| 2026-04-21 15:42 | 42.15592 | 4.10365 | 36929 ft | 418 kts | 213° |
| 2026-04-21 15:43 | 42.10480 | 4.06607 | 36926 ft | 418 kts | 213° |
| 2026-04-21 15:43 | 42.05372 | 4.02856 | 36931 ft | 418 kts | 213° |
| 2026-04-21 15:44 | 42.01129 | 3.99743 | 36934 ft | 418 kts | 213° |
| 2026-04-21 15:44 | 41.95180 | 3.95389 | 36935 ft | 418 kts | 213° |
| 2026-04-21 15:45 | 41.90652 | 3.93002 | 36910 ft | 427 kts | 197° |
| 2026-04-21 15:45 | 41.84773 | 3.91613 | 36919 ft | 429 kts | 194° |
| 2026-04-21 15:46 | 41.78882 | 3.90249 | 36926 ft | 430 kts | 194° |
| 2026-04-21 15:46 | 41.72978 | 3.88884 | 36932 ft | 430 kts | 194° |
| 2026-04-21 15:47 | 41.67083 | 3.87532 | 36930 ft | 430 kts | 194° |
| 2026-04-21 15:47 | 41.61183 | 3.86177 | 36935 ft | 430 kts | 194° |
| 2026-04-21 15:48 | 41.55270 | 3.84815 | 36939 ft | 430 kts | 194° |
| 2026-04-21 15:48 | 41.49366 | 3.83457 | 36921 ft | 430 kts | 194° |
| 2026-04-21 15:49 | 41.43466 | 3.82104 | 36932 ft | 430 kts | 194° |
| 2026-04-21 15:49 | 41.37555 | 3.80758 | 36938 ft | 431 kts | 194° |
| 2026-04-21 15:50 | 41.31645 | 3.79409 | 36936 ft | 430 kts | 194° |
| 2026-04-21 15:50 | 41.25776 | 3.78072 | 36935 ft | 430 kts | 194° |
| 2026-04-21 15:51 | 41.22821 | 3.77398 | 36688 ft | 430 kts | 194° |
| 2026-04-21 15:51 | 41.19884 | 3.76730 | 36247 ft | 426 kts | 194° |
| 2026-04-21 15:51 | 41.16964 | 3.76067 | 35805 ft | 423 kts | 195° |
| 2026-04-21 15:51 | 41.14147 | 3.75095 | 35374 ft | 415 kts | 205° |
| 2026-04-21 15:52 | 41.11474 | 3.73729 | 34924 ft | 410 kts | 206° |
| 2026-04-21 15:52 | 41.08815 | 3.72351 | 34475 ft | 408 kts | 206° |
| 2026-04-21 15:52 | 41.06171 | 3.70988 | 34020 ft | 406 kts | 206° |
| 2026-04-21 15:52 | 41.03546 | 3.69639 | 33535 ft | 404 kts | 206° |
| 2026-04-21 15:53 | 41.00935 | 3.68296 | 33078 ft | 400 kts | 206° |
| 2026-04-21 15:53 | 40.98385 | 3.66982 | 32641 ft | 397 kts | 206° |
| 2026-04-21 15:53 | 40.95811 | 3.65656 | 32195 ft | 395 kts | 206° |
| 2026-04-21 15:53 | 40.93257 | 3.64342 | 31762 ft | 392 kts | 206° |
| 2026-04-21 15:54 | 40.90720 | 3.63040 | 31333 ft | 390 kts | 206° |
| 2026-04-21 15:54 | 40.88194 | 3.61748 | 30903 ft | 389 kts | 206° |
| 2026-04-21 15:54 | 40.85671 | 3.60460 | 30484 ft | 387 kts | 206° |
| 2026-04-21 15:54 | 40.83160 | 3.59175 | 30063 ft | 387 kts | 205° |
| 2026-04-21 15:55 | 40.80657 | 3.57893 | 29594 ft | 386 kts | 205° |
| 2026-04-21 15:55 | 40.78154 | 3.56614 | 29118 ft | 384 kts | 205° |
| 2026-04-21 15:55 | 40.75665 | 3.55344 | 28651 ft | 383 kts | 205° |
| 2026-04-21 15:55 | 40.73178 | 3.54076 | 28193 ft | 382 kts | 205° |
| 2026-04-21 15:56 | 40.70733 | 3.52831 | 27744 ft | 382 kts | 205° |
| 2026-04-21 15:56 | 40.68256 | 3.51569 | 27307 ft | 381 kts | 205° |
| 2026-04-21 15:56 | 40.65788 | 3.50313 | 26963 ft | 378 kts | 205° |
| 2026-04-21 15:56 | 40.63349 | 3.49073 | 26703 ft | 372 kts | 205° |
| 2026-04-21 15:57 | 40.60950 | 3.47853 | 26467 ft | 367 kts | 205° |
| 2026-04-21 15:57 | 40.58581 | 3.46653 | 26110 ft | 364 kts | 205° |
| 2026-04-21 15:57 | 40.56226 | 3.45456 | 25710 ft | 362 kts | 205° |
| 2026-04-21 15:57 | 40.53878 | 3.44260 | 25302 ft | 361 kts | 205° |
| 2026-04-21 15:58 | 40.51543 | 3.43077 | 24905 ft | 359 kts | 205° |
| 2026-04-21 15:58 | 40.49207 | 3.41902 | 24488 ft | 358 kts | 205° |
| 2026-04-21 15:58 | 40.46880 | 3.40727 | 24070 ft | 358 kts | 205° |
| 2026-04-21 15:58 | 40.44511 | 3.39724 | 23647 ft | 360 kts | 195° |
| 2026-04-21 15:59 | 40.42001 | 3.39366 | 23153 ft | 365 kts | 182° |
| 2026-04-21 15:59 | 40.39470 | 3.39523 | 22712 ft | 363 kts | 180° |
| 2026-04-21 15:59 | 40.36958 | 3.39685 | 22285 ft | 361 kts | 181° |
| 2026-04-21 15:59 | 40.34449 | 3.39830 | 21846 ft | 359 kts | 181° |
| 2026-04-21 16:00 | 40.31959 | 3.39962 | 21417 ft | 357 kts | 181° |
| 2026-04-21 16:00 | 40.29510 | 3.40087 | 20996 ft | 355 kts | 181° |
| 2026-04-21 16:00 | 40.27046 | 3.40212 | 20559 ft | 354 kts | 181° |
| 2026-04-21 16:00 | 40.24583 | 3.40343 | 20126 ft | 353 kts | 181° |
| 2026-04-21 16:01 | 40.22131 | 3.40479 | 19698 ft | 351 kts | 181° |
| 2026-04-21 16:01 | 40.19693 | 3.40615 | 19259 ft | 350 kts | 181° |
| 2026-04-21 16:01 | 40.17265 | 3.40755 | 18838 ft | 349 kts | 181° |
| 2026-04-21 16:01 | 40.14837 | 3.40897 | 18410 ft | 348 kts | 180° |
| 2026-04-21 16:02 | 40.12415 | 3.41039 | 17953 ft | 347 kts | 180° |
| 2026-04-21 16:02 | 40.10013 | 3.41183 | 17514 ft | 345 kts | 180° |
| 2026-04-21 16:02 | 40.07624 | 3.41318 | 17091 ft | 342 kts | 180° |
| 2026-04-21 16:02 | 40.05285 | 3.41446 | 16687 ft | 339 kts | 180° |
| 2026-04-21 16:03 | 40.02931 | 3.41573 | 16281 ft | 337 kts | 180° |
| 2026-04-21 16:03 | 40.00614 | 3.41707 | 16089 ft | 328 kts | 180° |
| 2026-04-21 16:03 | 39.98348 | 3.41841 | 15743 ft | 325 kts | 180° |
| 2026-04-21 16:03 | 39.96094 | 3.41973 | 15361 ft | 324 kts | 180° |
| 2026-04-21 16:04 | 39.93847 | 3.42099 | 14977 ft | 321 kts | 180° |
| 2026-04-21 16:04 | 39.91631 | 3.42222 | 14332 ft | 318 kts | 180° |
| 2026-04-21 16:04 | 39.89445 | 3.42341 | 13881 ft | 309 kts | 180° |
| 2026-04-21 16:04 | 39.87320 | 3.42456 | 13470 ft | 303 kts | 179° |
| 2026-04-21 16:05 | 39.85232 | 3.42570 | 13080 ft | 297 kts | 179° |
| 2026-04-21 16:05 | 39.83205 | 3.42492 | 12414 ft | 295 kts | 194° |
| 2026-04-21 16:05 | 39.81292 | 3.41487 | 11618 ft | 295 kts | 216° |
| 2026-04-21 16:05 | 39.79845 | 3.39622 | 10849 ft | 294 kts | 238° |
| 2026-04-21 16:06 | 39.78991 | 3.37209 | 10118 ft | 294 kts | 251° |
| 2026-04-21 16:06 | 39.78294 | 3.34757 | 9491 ft | 291 kts | 251° |
| 2026-04-21 16:06 | 39.77602 | 3.32308 | 8985 ft | 285 kts | 250° |
| 2026-04-21 16:06 | 39.76926 | 3.29924 | 8708 ft | 279 kts | 250° |
| 2026-04-21 16:07 | 39.76253 | 3.27563 | 8389 ft | 278 kts | 250° |
| 2026-04-21 16:07 | 39.75590 | 3.25246 | 8051 ft | 268 kts | 250° |
| 2026-04-21 16:07 | 39.74953 | 3.23023 | 7755 ft | 257 kts | 249° |
| 2026-04-21 16:07 | 39.74343 | 3.20895 | 7459 ft | 246 kts | 249° |
| 2026-04-21 16:08 | 39.73166 | 3.16786 | 6882 ft | 242 kts | 249° |
| 2026-04-21 16:08 | 39.72578 | 3.14741 | 6594 ft | 241 kts | 248° |
| 2026-04-21 16:08 | 39.71993 | 3.12708 | 6306 ft | 239 kts | 248° |
| 2026-04-21 16:09 | 39.71432 | 3.10674 | 5939 ft | 241 kts | 250° |
| 2026-04-21 16:09 | 39.70776 | 3.08672 | 5593 ft | 241 kts | 241° |
| 2026-04-21 16:09 | 39.69943 | 3.06790 | 5285 ft | 240 kts | 237° |
| 2026-04-21 16:09 | 39.69068 | 3.04938 | 4972 ft | 241 kts | 237° |
| 2026-04-21 16:10 | 39.68196 | 3.03085 | 4663 ft | 240 kts | 236° |
| 2026-04-21 16:10 | 39.67342 | 3.01261 | 4343 ft | 231 kts | 236° |
| 2026-04-21 16:10 | 39.66517 | 2.99500 | 4047 ft | 227 kts | 237° |
| 2026-04-21 16:10 | 39.65703 | 2.97765 | 3754 ft | 223 kts | 237° |
| 2026-04-21 16:11 | 39.64914 | 2.96084 | 3465 ft | 217 kts | 238° |
| 2026-04-21 16:11 | 39.64143 | 2.94440 | 3188 ft | 208 kts | 238° |
| 2026-04-21 16:11 | 39.63399 | 2.92855 | 2923 ft | 204 kts | 238° |
| 2026-04-21 16:11 | 39.62657 | 2.91281 | 2670 ft | 204 kts | 238° |
| 2026-04-21 16:12 | 39.62167 | 2.90243 | 2533 ft | 195 kts | 237° |
| 2026-04-21 16:12 | 39.61265 | 2.88330 | 2172 ft | 183 kts | 237° |
| 2026-04-21 16:12 | 39.60625 | 2.86955 | 1872 ft | 171 kts | 237° |
| 2026-04-21 16:12 | 39.60059 | 2.85747 | 1662 ft | 157 kts | 234° |
| 2026-04-21 16:13 | 39.59511 | 2.84602 | 1483 ft | 146 kts | 234° |
| 2026-04-21 16:13 | 39.58992 | 2.83506 | 1270 ft | 142 kts | 235° |
| 2026-04-21 16:13 | 39.58487 | 2.82432 | 1126 ft | 139 kts | 236° |
| 2026-04-21 16:13 | 39.57991 | 2.81380 | 970 ft | 137 kts | 237° |
| 2026-04-21 16:14 | 39.57489 | 2.80318 | 784 ft | 138 kts | 237° |
| 2026-04-21 16:14 | 39.57006 | 2.79282 | 592 ft | 133 kts | 239° |
| 2026-04-21 16:14 | 39.56528 | 2.78257 | 427 ft | 132 kts | 238° |
| 2026-04-21 16:14 | 39.56046 | 2.77234 | 246 ft | 133 kts | 238° |
| 2026-04-21 16:15 | 39.55569 | 2.76221 | 92 ft | 131 kts | 238° |
| 2026-04-21 16:15 | 39.55122 | 2.75274 | 31 ft | 107 kts | 239° |
| 2026-04-21 16:15 | 39.54808 | 2.74609 | 30 ft | 62 kts | 238° |
| 2026-04-21 16:15 | 39.54639 | 2.74253 | 30 ft | 34 kts | 238° |
| 2026-04-21 16:16 | 39.54560 | 2.74012 | 30 ft | 28 kts | 259° |
| 2026-04-21 16:16 | 39.54552 | 2.73812 | 30 ft | 15 kts | 270° |
| 2026-04-21 16:16 | 39.54556 | 2.73729 | 30 ft | 8 kts | 278° |
| 2026-04-21 16:16 | 39.54583 | 2.73655 | 30 ft | 11 kts | 313° |
| 2026-04-21 16:17 | 39.54632 | 2.73620 | 30 ft | 8 kts | 348° |
| 2026-04-21 16:17 | 39.54680 | 2.73611 | 30 ft | 7 kts | 351° |
| 2026-04-21 16:17 | 39.54711 | 2.73657 | 30 ft | 7 kts | 59° |
| 2026-04-21 16:17 | 39.54719 | 2.73673 | 30 ft | 0 kts | 58° |